Time;durP1;ratioP1;P1;durP2;ratioP2;P2;SDS_P1;SDS_P2;PMS_P1;PMS_P2;Temp;Humidity;BMP_temperature;BMP_pressure;BME280_temperature;BME280_humidity;BME280_pressure;Samples;Min_cycle;Max_cycle;Signal;HPM_P1;HPM_P2
2021/05/20 00:05:29;;;;;;;10.55;7.40;;;9.30;99.90;;;;;;12204229;28;20494;-79
2021/05/20 00:11:31;;;;;;;9.60;7.32;;;9.20;99.90;;;;;;12212261;28;20058;-79
2021/05/20 00:17:33;;;;;;;11.20;8.05;;;9.20;99.90;;;;;;12201568;28;20492;-79
2021/05/20 00:23:35;;;;;;;13.88;7.95;;;9.20;99.90;;;;;;12201694;28;20094;-79
2021/05/20 00:29:37;;;;;;;10.40;7.35;;;9.10;99.90;;;;;;12207155;28;20052;-79
2021/05/20 00:35:39;;;;;;;11.32;7.95;;;9.00;99.90;;;;;;12205511;28;20055;-79
2021/05/20 00:41:41;;;;;;;11.65;8.20;;;9.00;99.90;;;;;;12211219;28;20098;-79
2021/05/20 00:47:42;;;;;;;11.25;7.82;;;9.00;99.90;;;;;;12218599;28;20477;-79
2021/05/20 00:53:49;;;;;;;10.38;8.48;;;9.00;99.90;;;;;;12211618;28;20436;-79
2021/05/20 00:59:52;;;;;;;10.00;7.40;;;8.80;99.90;;;;;;12215369;28;20118;-79
2021/05/20 01:05:54;;;;;;;13.13;8.98;;;8.90;99.90;;;;;;12213591;28;20051;-79
2021/05/20 01:11:56;;;;;;;10.48;8.43;;;8.90;99.90;;;;;;12220288;28;20137;-79
2021/05/20 01:18:04;;;;;;;11.77;8.98;;;8.80;99.90;;;;;;12223292;28;20059;-79
2021/05/20 01:24:06;;;;;;;12.05;9.40;;;8.60;99.90;;;;;;12226662;28;20071;-79
2021/05/20 01:30:09;;;;;;;13.57;9.52;;;8.60;99.90;;;;;;12270000;28;20137;-79
2021/05/20 01:36:12;;;;;;;13.43;9.65;;;8.50;99.90;;;;;;12256921;28;20058;-79
2021/05/20 01:42:14;;;;;;;13.38;9.90;;;8.40;99.90;;;;;;12219951;28;20047;-78
2021/05/20 01:48:15;;;;;;;14.48;11.48;;;8.30;99.90;;;;;;12217506;28;20508;-79
2021/05/20 01:54:17;;;;;;;16.10;12.10;;;8.40;99.90;;;;;;12229891;28;20048;-79
2021/05/20 02:00:19;;;;;;;16.75;12.23;;;8.30;99.90;;;;;;12220070;28;20519;-79
2021/05/20 02:06:21;;;;;;;16.70;12.02;;;8.30;99.90;;;;;;12218530;28;20521;-78
2021/05/20 02:12:23;;;;;;;15.98;12.75;;;8.30;99.90;;;;;;12213072;28;20087;-79
2021/05/20 02:18:26;;;;;;;16.80;12.27;;;8.20;99.90;;;;;;12210295;28;20452;-79
2021/05/20 02:24:28;;;;;;;18.83;13.60;;;8.10;99.90;;;;;;12223378;28;20127;-79
2021/05/20 02:30:30;;;;;;;17.00;13.82;;;8.10;99.90;;;;;;12213579;28;20085;-79
2021/05/20 02:36:32;;;;;;;16.58;13.45;;;8.10;99.90;;;;;;12207026;28;20064;-79
2021/05/20 02:42:34;;;;;;;19.05;14.73;;;7.90;99.90;;;;;;12210745;28;20131;-79
2021/05/20 02:48:36;;;;;;;17.73;14.45;;;7.90;99.90;;;;;;12208092;28;20424;-78
2021/05/20 02:54:38;;;;;;;19.77;14.90;;;7.80;99.90;;;;;;12200917;28;20079;-79
2021/05/20 03:00:40;;;;;;;18.83;12.98;;;8.00;99.90;;;;;;12211824;28;20056;-79
2021/05/20 03:06:42;;;;;;;16.13;12.93;;;8.00;99.90;;;;;;12204494;28;20446;-79
2021/05/20 03:12:44;;;;;;;17.85;12.73;;;7.90;99.90;;;;;;12203654;28;20146;-79
2021/05/20 03:18:46;;;;;;;17.85;13.05;;;7.70;99.90;;;;;;12212943;28;20102;-78
2021/05/20 03:24:50;;;;;;;18.05;14.15;;;7.60;99.90;;;;;;12211960;28;20515;-78
2021/05/20 03:30:52;;;;;;;21.08;13.35;;;7.50;99.90;;;;;;12223889;28;20059;-79
2021/05/20 03:36:54;;;;;;;15.32;12.93;;;7.50;99.90;;;;;;12205712;28;20592;-79
2021/05/20 03:42:56;;;;;;;19.73;14.48;;;7.80;99.90;;;;;;12203048;28;20048;-79
2021/05/20 03:48:57;;;;;;;18.00;14.35;;;7.60;99.90;;;;;;12214400;28;20590;-79
2021/05/20 03:54:59;;;;;;;16.25;12.88;;;7.70;99.90;;;;;;12207071;28;20040;-78
2021/05/20 04:01:01;;;;;;;16.48;13.70;;;7.80;99.90;;;;;;12209854;28;20067;-79
2021/05/20 04:07:03;;;;;;;20.08;14.13;;;7.80;99.90;;;;;;12202632;28;20051;-80
2021/05/20 04:13:05;;;;;;;16.35;14.23;;;8.10;99.90;;;;;;12207664;28;20312;-78
2021/05/20 04:19:07;;;;;;;19.80;13.77;;;7.90;99.90;;;;;;12208069;28;20079;-78
2021/05/20 04:25:09;;;;;;;20.05;14.45;;;7.80;99.90;;;;;;12176328;28;20514;-79
2021/05/20 04:31:11;;;;;;;20.95;16.00;;;7.90;99.90;;;;;;12179655;28;20635;-79
2021/05/20 04:37:13;;;;;;;19.73;15.90;;;8.20;99.90;;;;;;12204019;28;20059;-79
2021/05/20 04:43:15;;;;;;;17.38;14.05;;;8.20;99.90;;;;;;12199749;29;20135;-79
2021/05/20 04:49:16;;;;;;;22.42;15.48;;;8.30;99.90;;;;;;12213834;28;20927;-78
2021/05/20 04:55:18;;;;;;;20.60;15.20;;;8.60;99.90;;;;;;12204564;29;20292;-79
2021/05/20 05:01:20;;;;;;;22.60;14.48;;;9.10;99.90;;;;;;12207364;28;20068;-80
2021/05/20 05:07:22;;;;;;;18.00;14.20;;;9.70;99.90;;;;;;12202805;28;20135;-79
2021/05/20 05:13:25;;;;;;;19.58;14.30;;;9.80;99.90;;;;;;12190860;28;20066;-79
2021/05/20 05:19:29;;;;;;;19.77;14.77;;;10.10;99.90;;;;;;12167964;28;20055;-79
2021/05/20 05:25:30;;;;;;;15.82;13.90;;;10.20;99.90;;;;;;12175191;28;20408;-79
2021/05/20 05:31:32;;;;;;;19.13;15.52;;;9.90;99.90;;;;;;12174763;28;20143;-78
2021/05/20 05:37:34;;;;;;;18.83;14.98;;;10.30;99.90;;;;;;12170102;28;20122;-79
2021/05/20 05:43:36;;;;;;;19.65;16.13;;;10.00;99.90;;;;;;12181190;28;20086;-79
2021/05/20 05:49:44;;;;;;;20.60;15.77;;;9.90;99.90;;;;;;12207246;28;20076;-79
2021/05/20 05:55:46;;;;;;;19.90;14.82;;;10.20;99.90;;;;;;12210122;28;20071;-79
2021/05/20 06:01:48;;;;;;;18.20;14.43;;;10.40;99.90;;;;;;12216209;28;20575;-79
2021/05/20 06:07:50;;;;;;;17.23;14.18;;;10.30;99.90;;;;;;12217081;28;20578;-79
2021/05/20 06:13:52;;;;;;;18.92;15.75;;;10.70;99.90;;;;;;12203719;28;20693;-79
2021/05/20 06:19:53;;;;;;;18.58;14.75;;;11.00;99.90;;;;;;12215392;28;20040;-79
2021/05/20 06:25:55;;;;;;;19.45;14.60;;;11.00;99.90;;;;;;12208297;28;20083;-79
2021/05/20 06:31:57;;;;;;;19.35;14.43;;;11.00;99.90;;;;;;12215829;28;20058;-79
2021/05/20 06:37:59;;;;;;;17.25;14.35;;;11.40;99.90;;;;;;12202410;28;20055;-79
2021/05/20 06:44:01;;;;;;;22.05;15.75;;;11.60;99.90;;;;;;12207889;28;20055;-79
2021/05/20 06:50:04;;;;;;;19.50;15.32;;;11.30;99.90;;;;;;12206538;28;20047;-79
2021/05/20 06:56:10;;;;;;;17.50;14.20;;;11.50;99.90;;;;;;12208542;28;20565;-79
2021/05/20 07:02:12;;;;;;;17.60;12.98;;;11.40;99.90;;;;;;12210531;28;20075;-79
2021/05/20 07:08:14;;;;;;;16.23;13.73;;;11.70;99.90;;;;;;12205752;28;20451;-79
2021/05/20 07:14:16;;;;;;;17.60;13.93;;;11.40;99.90;;;;;;12208896;28;20076;-80
2021/05/20 07:20:18;;;;;;;19.02;15.40;;;11.30;99.90;;;;;;12209525;28;20052;-79
2021/05/20 07:26:19;;;;;;;16.75;14.52;;;10.90;99.90;;;;;;12212675;28;20051;-79
2021/05/20 07:32:22;;;;;;;16.73;14.50;;;11.20;99.90;;;;;;12207779;28;20086;-80
2021/05/20 07:38:24;;;;;;;17.50;15.55;;;11.70;99.90;;;;;;12218111;28;20148;-80
2021/05/20 07:44:25;;;;;;;18.17;14.00;;;11.60;99.90;;;;;;12290704;23;20574;-39
2021/05/20 07:50:27;;;;;;;18.77;14.25;;;11.90;99.90;;;;;;12424027;28;20153;-40
2021/05/20 07:56:29;;;;;;;15.88;13.05;;;12.10;99.90;;;;;;12429819;28;20137;-39
2021/05/20 08:14:57;;;;;;;14.45;10.70;;;12.50;99.90;;;;;;12392780;28;20046;-41
2021/05/20 08:20:59;;;;;;;16.58;13.48;;;12.80;99.90;;;;;;12413455;28;20046;-40
2021/05/20 08:27:02;;;;;;;14.50;12.13;;;13.10;99.90;;;;;;12391840;28;20141;-40
2021/05/20 08:33:04;;;;;;;18.00;13.55;;;13.30;99.90;;;;;;12392885;28;20149;-40
2021/05/20 08:39:06;;;;;;;18.15;13.38;;;12.80;99.90;;;;;;12390882;28;20046;-40
2021/05/20 08:45:09;;;;;;;16.10;12.57;;;13.20;99.90;;;;;;12386737;28;20060;-41
2021/05/20 08:51:11;;;;;;;17.10;13.27;;;13.50;99.90;;;;;;12390598;28;20049;-39
2021/05/20 08:57:13;;;;;;;16.88;12.60;;;13.10;99.90;;;;;;12400706;28;20131;-41
2021/05/20 09:03:16;;;;;;;15.20;12.02;;;12.60;99.90;;;;;;12393960;28;20081;-39
2021/05/20 09:09:27;;;;;;;20.75;14.77;;;12.60;99.90;;;;;;12393568;28;20215;-40
2021/05/20 09:15:35;;;;;;;17.35;13.45;;;12.80;99.90;;;;;;12394270;28;20042;-40
2021/05/20 09:22:07;;;;;;;16.05;12.90;;;13.10;99.90;;;;;;12396617;28;20069;-40
2021/05/20 09:28:11;;;;;;;14.23;11.90;;;13.00;99.90;;;;;;12393053;28;20121;-39
2021/05/20 09:34:17;;;;;;;12.85;11.13;;;13.30;99.90;;;;;;12394608;28;20592;-40
2021/05/20 09:40:26;;;;;;;13.65;11.73;;;13.80;99.90;;;;;;12394979;28;20046;-39
2021/05/20 09:46:42;;;;;;;13.50;9.15;;;14.10;99.90;;;;;;12392543;28;20088;-40
2021/05/20 09:52:44;;;;;;;13.20;9.90;;;14.20;99.90;;;;;;12391045;28;20149;-40
2021/05/20 09:58:54;;;;;;;10.80;8.40;;;14.30;99.90;;;;;;12391190;28;20149;-39
2021/05/20 10:04:56;;;;;;;10.48;8.07;;;14.60;99.90;;;;;;12384852;28;20417;-41
2021/05/20 10:11:03;;;;;;;8.57;6.63;;;14.60;99.90;;;;;;12392435;28;20485;-40
2021/05/20 10:17:05;;;;;;;8.73;6.32;;;15.00;99.90;;;;;;12387577;28;20695;-40
2021/05/20 10:23:12;;;;;;;9.60;5.60;;;14.60;99.90;;;;;;12389416;28;20129;-40
2021/05/20 10:29:14;;;;;;;9.27;5.47;;;14.70;99.90;;;;;;12386476;28;20463;-40
2021/05/20 10:35:16;;;;;;;8.65;5.90;;;15.40;99.90;;;;;;12389047;28;20060;-40
2021/05/20 10:41:25;;;;;;;10.38;6.30;;;15.80;99.90;;;;;;12389008;28;20173;-39
2021/05/20 10:47:27;;;;;;;10.20;5.90;;;15.60;99.90;;;;;;12384948;28;20047;-40
2021/05/20 10:53:38;;;;;;;7.13;4.80;;;15.70;99.90;;;;;;12386248;28;20137;-40
2021/05/20 10:59:42;;;;;;;7.53;4.65;;;16.30;99.90;;;;;;12387812;28;21062;-40
2021/05/20 11:05:44;;;;;;;5.75;3.38;;;16.80;99.90;;;;;;12383587;28;20141;-41
2021/05/20 11:11:47;;;;;;;5.53;3.05;;;17.20;99.90;;;;;;12386921;28;20054;-40
2021/05/20 11:17:49;;;;;;;5.20;3.10;;;16.50;99.90;;;;;;12388116;28;20181;-39
2021/05/20 11:24:14;;;;;;;5.45;2.70;;;16.50;99.90;;;;;;12387852;28;20094;-41
2021/05/20 11:30:17;;;;;;;6.15;2.72;;;17.50;99.90;;;;;;12385381;28;20050;-40
2021/05/20 11:36:19;;;;;;;4.93;3.30;;;16.90;99.90;;;;;;12388445;28;20088;-40
2021/05/20 11:42:31;;;;;;;6.28;3.42;;;16.20;99.90;;;;;;12392025;28;20123;-40
2021/05/20 11:48:33;;;;;;;7.10;3.78;;;15.80;99.90;;;;;;12389981;28;20133;-40
2021/05/20 11:54:42;;;;;;;5.13;2.88;;;16.10;99.90;;;;;;12391007;28;20904;-40
2021/05/20 12:00:48;;;;;;;5.97;3.88;;;16.20;99.90;;;;;;12385931;28;20046;-39
2021/05/20 12:06:50;;;;;;;6.40;3.80;;;16.30;99.90;;;;;;12386075;28;20061;-41
2021/05/20 12:12:56;;;;;;;5.03;3.38;;;16.80;99.90;;;;;;12387490;28;20058;-40
2021/05/20 12:18:59;;;;;;;6.07;3.47;;;17.00;99.90;;;;;;12391422;28;20081;-40
2021/05/20 12:25:04;;;;;;;5.40;3.28;;;16.70;99.90;;;;;;12382116;28;20149;-40
2021/05/20 12:31:06;;;;;;;5.60;3.05;;;17.10;99.90;;;;;;12383352;28;20463;-41
2021/05/20 12:37:09;;;;;;;5.22;3.17;;;16.80;99.90;;;;;;12385565;28;20054;-40
2021/05/20 12:43:21;;;;;;;8.13;4.70;;;17.40;99.90;;;;;;12381563;28;20624;-40
2021/05/20 12:49:23;;;;;;;8.30;4.65;;;17.10;99.90;;;;;;12389471;28;20046;-40
2021/05/20 12:55:41;;;;;;;11.20;5.20;;;17.80;99.90;;;;;;12396115;28;20043;-40
2021/05/20 13:01:46;;;;;;;8.02;4.40;;;17.90;99.90;;;;;;12395142;28;20057;-40
2021/05/20 13:07:48;;;;;;;9.48;4.80;;;18.10;99.90;;;;;;12396825;28;20046;-40
2021/05/20 13:13:53;;;;;;;9.88;4.90;;;17.90;99.90;;;;;;12391960;28;20054;-39
2021/05/20 13:26:07;;;;;;;11.80;6.60;;;17.90;99.90;;;;;;12394737;28;20054;-39
2021/05/20 13:32:16;;;;;;;10.35;6.60;;;16.90;99.90;;;;;;12396254;28;20047;-39
2021/05/20 13:38:19;;;;;;;12.07;6.45;;;17.50;99.90;;;;;;12392870;28;21085;-41
2021/05/20 13:44:20;;;;;;;10.43;6.15;;;18.40;99.90;;;;;;12393527;28;20848;-39
2021/05/20 13:50:23;;;;;;;11.88;6.40;;;19.00;99.90;;;;;;12388229;28;20052;-39
2021/05/20 13:56:25;;;;;;;11.77;6.65;;;18.90;99.90;;;;;;12390853;28;20046;-39
2021/05/20 14:02:33;;;;;;;10.48;5.57;;;17.70;99.90;;;;;;12389990;28;20046;-41
2021/05/20 14:08:35;;;;;;;12.70;7.53;;;17.50;99.90;;;;;;12388653;28;20844;-40
2021/05/20 14:14:37;;;;;;;7.53;5.10;;;17.80;99.90;;;;;;12390129;28;20058;-39
2021/05/20 14:20:39;;;;;;;6.90;3.33;;;18.20;99.90;;;;;;12393444;28;20049;-41
2021/05/20 14:26:41;;;;;;;5.55;2.75;;;18.50;99.90;;;;;;12390348;28;20614;-40
2021/05/20 14:32:43;;;;;;;3.83;1.92;;;18.20;99.90;;;;;;12391022;28;20116;-40
2021/05/20 14:38:45;;;;;;;3.63;1.95;;;18.70;99.90;;;;;;12390955;28;20535;-39
2021/05/20 14:44:47;;;;;;;5.65;2.78;;;18.40;99.90;;;;;;12388083;28;20050;-40
2021/05/20 14:51:01;;;;;;;5.47;2.67;;;18.40;99.90;;;;;;12391014;28;20112;-41
2021/05/20 14:57:15;;;;;;;5.20;2.83;;;18.30;99.90;;;;;;12394034;28;20058;-40
2021/05/20 15:10:05;;;;;;;5.88;3.38;;;18.00;99.90;;;;;;12388506;28;20459;-39
2021/05/20 15:16:00;;;;;;;6.22;4.18;;;17.20;99.90;;;;;;12387878;28;20054;-39
2021/05/20 15:22:02;;;;;;;4.93;3.55;;;17.60;99.90;;;;;;12390640;28;20899;-39
2021/05/20 15:28:04;;;;;;;6.82;3.92;;;17.60;99.90;;;;;;12392261;28;20061;-40
2021/05/20 15:34:06;;;;;;;8.20;4.90;;;17.20;99.90;;;;;;12385385;28;20050;-39
2021/05/20 15:40:09;;;;;;;6.82;4.00;;;17.10;99.90;;;;;;12385089;28;20057;-40
2021/05/20 15:46:11;;;;;;;7.93;4.45;;;16.90;99.90;;;;;;12387303;28;20073;-39
2021/05/20 15:52:38;;;;;;;9.13;4.82;;;17.00;99.90;;;;;;12384003;28;20049;-39
2021/05/20 15:58:40;;;;;;;6.85;4.07;;;17.00;99.90;;;;;;12381431;28;20078;-39
2021/05/20 16:04:44;;;;;;;8.05;4.05;;;17.00;99.90;;;;;;12384850;28;20054;-39
2021/05/20 16:11:03;;;;;;;8.63;4.57;;;16.90;99.90;;;;;;12387110;28;20133;-40
2021/05/20 16:17:05;;;;;;;6.72;4.28;;;16.80;99.90;;;;;;12379539;28;20500;-40
2021/05/20 16:23:12;;;;;;;6.82;4.78;;;16.70;99.90;;;;;;12384328;28;20541;-39
2021/05/20 16:41:39;;;;;;;7.00;4.70;;;16.40;99.90;;;;;;12388957;28;20115;-41
2021/05/20 16:47:41;;;;;;;7.63;4.93;;;16.00;99.90;;;;;;12391799;28;20086;-40
2021/05/20 16:53:43;;;;;;;6.72;5.10;;;16.00;99.90;;;;;;12394988;28;20410;-40
2021/05/20 16:59:45;;;;;;;8.18;5.28;;;16.00;99.90;;;;;;12391993;28;20569;-39
2021/05/20 17:05:47;;;;;;;7.93;4.95;;;16.00;99.90;;;;;;12394530;28;20058;-40
2021/05/20 17:11:49;;;;;;;8.57;5.60;;;15.90;99.90;;;;;;12395448;28;20088;-39
2021/05/20 17:17:51;;;;;;;8.70;5.38;;;15.40;99.90;;;;;;12395777;28;20136;-39
2021/05/20 17:23:55;;;;;;;8.15;5.55;;;15.40;99.90;;;;;;12392887;28;20141;-39
2021/05/20 17:29:58;;;;;;;14.30;6.00;;;15.40;99.90;;;;;;12395113;28;20136;-39
2021/05/20 17:36:01;;;;;;;9.75;6.45;;;15.20;99.90;;;;;;12391519;28;20576;-39
2021/05/20 17:42:03;;;;;;;11.07;6.82;;;14.80;99.90;;;;;;12389588;28;20070;-40
2021/05/20 17:48:08;;;;;;;10.98;6.00;;;14.60;99.90;;;;;;12392268;28;20521;-39
2021/05/20 17:54:10;;;;;;;9.02;6.00;;;14.60;99.90;;;;;;12391799;28;20599;-42
2021/05/20 18:00:20;;;;;;;9.23;5.70;;;14.40;99.90;;;;;;12392703;28;20050;-39
2021/05/20 18:06:23;;;;;;;8.75;5.88;;;14.40;99.90;;;;;;12388126;28;20078;-40
2021/05/20 18:12:43;;;;;;;8.07;6.00;;;14.20;99.90;;;;;;12389149;28;20058;-41
2021/05/20 18:19:03;;;;;;;8.27;5.45;;;14.20;99.90;;;;;;12390565;28;20494;-42
2021/05/20 18:25:05;;;;;;;7.53;5.63;;;14.10;99.90;;;;;;12388364;28;20718;-41
2021/05/20 18:31:09;;;;;;;7.78;6.30;;;14.10;99.90;;;;;;12387399;28;20162;-41
2021/05/20 18:37:12;;;;;;;7.30;5.72;;;13.80;99.90;;;;;;12390305;28;20142;-41
2021/05/20 18:43:14;;;;;;;10.07;5.40;;;13.70;99.90;;;;;;12391020;28;20141;-41
2021/05/20 18:49:25;;;;;;;8.60;5.78;;;13.70;99.90;;;;;;12391821;28;20751;-41
2021/05/20 18:55:27;;;;;;;10.00;5.80;;;13.50;99.90;;;;;;12392449;28;20065;-41
2021/05/20 19:01:29;;;;;;;11.18;6.80;;;13.40;99.90;;;;;;12390734;28;20077;-40
2021/05/20 19:13:36;;;;;;;9.45;6.93;;;13.20;99.90;;;;;;12386846;28;20084;-40
2021/05/20 19:19:44;;;;;;;9.13;7.07;;;13.10;99.90;;;;;;12380869;28;20065;-41
2021/05/20 19:25:46;;;;;;;9.75;7.07;;;13.10;99.90;;;;;;12390382;28;20109;-41
2021/05/20 19:32:00;;;;;;;10.02;6.95;;;13.00;99.90;;;;;;12387317;28;21863;-40
2021/05/20 19:38:02;;;;;;;10.90;7.03;;;12.90;99.90;;;;;;12387788;28;20057;-41
2021/05/20 19:44:04;;;;;;;10.48;8.07;;;12.90;99.90;;;;;;12387133;28;20159;-42
2021/05/20 19:50:10;;;;;;;12.82;8.05;;;12.70;99.90;;;;;;12387001;28;20052;-41
2021/05/20 20:02:36;;;;;;;11.02;7.35;;;12.80;99.90;;;;;;12399163;28;20558;-40
2021/05/20 20:08:46;;;;;;;10.93;7.30;;;12.70;99.90;;;;;;12397296;28;20449;-41
2021/05/20 20:14:48;;;;;;;10.07;6.50;;;12.60;99.90;;;;;;12395552;28;20140;-41
2021/05/20 20:21:01;;;;;;;8.75;6.88;;;12.60;99.90;;;;;;12395199;28;20050;-41
2021/05/20 20:45:47;;;;;;;11.20;7.55;;;12.70;99.90;;;;;;12395899;28;20061;-41
2021/05/20 20:51:48;;;;;;;11.18;7.97;;;12.70;99.90;;;;;;12395606;28;20133;-40
2021/05/20 20:57:50;;;;;;;14.18;8.27;;;12.60;99.90;;;;;;12396259;28;20077;-41
2021/05/20 21:03:53;;;;;;;11.18;7.90;;;12.50;99.90;;;;;;12392369;28;20552;-41
2021/05/20 21:09:55;;;;;;;11.65;7.63;;;12.40;99.90;;;;;;12391290;28;20050;-40
2021/05/20 21:15:57;;;;;;;10.13;7.22;;;12.40;99.90;;;;;;12395099;28;20118;-41
2021/05/20 21:21:59;;;;;;;9.55;7.10;;;12.30;99.90;;;;;;12397340;28;20068;-41
2021/05/20 21:28:00;;;;;;;9.00;6.20;;;12.40;99.90;;;;;;12394264;28;20057;-41
2021/05/20 21:34:03;;;;;;;7.78;5.97;;;12.40;99.90;;;;;;12390964;28;20394;-41
2021/05/20 21:40:07;;;;;;;6.55;4.95;;;12.40;99.90;;;;;;12394565;28;20050;-41
2021/05/20 21:46:08;;;;;;;6.28;5.03;;;12.40;99.90;;;;;;12393320;28;20619;-41
2021/05/20 21:52:10;;;;;;;7.90;4.80;;;12.40;99.90;;;;;;12390806;28;20137;-40
2021/05/20 21:58:12;;;;;;;5.30;3.58;;;12.30;99.90;;;;;;12397460;28;20053;-41
2021/05/20 22:04:14;;;;;;;7.03;3.25;;;12.20;99.90;;;;;;12392495;28;20073;-41
2021/05/20 22:16:51;;;;;;;5.22;2.63;;;12.20;99.90;;;;;;12382434;28;20161;-41
2021/05/20 22:22:52;;;;;;;4.72;2.10;;;12.20;99.90;;;;;;12392461;28;20053;-41
2021/05/20 22:34:56;;;;;;;4.40;2.10;;;12.20;99.90;;;;;;12392808;28;20498;-41
2021/05/20 22:40:58;;;;;;;3.90;1.80;;;12.10;99.90;;;;;;12390887;28;20133;-42
2021/05/20 22:47:00;;;;;;;3.85;1.90;;;12.00;99.90;;;;;;12390518;28;20139;-42
2021/05/20 22:53:02;;;;;;;2.20;1.67;;;12.00;99.90;;;;;;12387777;28;20713;-41
2021/05/20 22:59:04;;;;;;;3.28;1.40;;;12.10;99.90;;;;;;12387376;28;20082;-40
2021/05/20 23:05:07;;;;;;;5.75;1.52;;;12.10;99.90;;;;;;12389025;28;20136;-41
2021/05/20 23:11:09;;;;;;;4.13;1.40;;;12.20;99.90;;;;;;12386255;28;20038;-42
2021/05/20 23:17:11;;;;;;;3.33;1.38;;;12.20;99.90;;;;;;12387899;28;20455;-41
2021/05/20 23:23:13;;;;;;;2.80;1.27;;;12.20;99.90;;;;;;12382069;28;20149;-41
2021/05/20 23:29:15;;;;;;;4.45;1.52;;;12.20;99.90;;;;;;12386129;28;20146;-41
2021/05/20 23:35:17;;;;;;;2.28;1.23;;;12.10;99.90;;;;;;12389901;28;20050;-40
2021/05/20 23:41:25;;;;;;;5.93;1.55;;;12.10;99.90;;;;;;12388246;28;20077;-41
2021/05/20 23:47:26;;;;;;;2.08;1.33;;;12.10;99.90;;;;;;12390159;28;20149;-41
2021/05/20 23:53:28;;;;;;;3.15;1.55;;;12.10;99.90;;;;;;12389219;28;20046;-41
2021/05/20 23:59:30;;;;;;;2.35;1.30;;;12.20;99.90;;;;;;12387384;28;20065;-41
